createdAt,value
2023-03-30T00:00:43.538Z,2.20
2023-03-30T00:01:43.551Z,2.60
2023-03-30T00:02:43.644Z,2.60
2023-03-30T00:03:43.656Z,2.40
2023-03-30T00:04:43.584Z,2.40
2023-03-30T00:05:43.494Z,2.90
2023-03-30T00:06:43.487Z,2.70
2023-03-30T00:07:43.464Z,2.40
2023-03-30T00:08:43.470Z,2.80
2023-03-30T00:09:43.476Z,2.70
2023-03-30T00:10:43.432Z,2.60
2023-03-30T00:11:43.448Z,2.60
2023-03-30T00:12:43.411Z,2.40
2023-03-30T00:13:43.395Z,2.90
2023-03-30T00:14:43.411Z,2.80
2023-03-30T00:15:43.362Z,2.40
2023-03-30T00:16:43.370Z,2.80
2023-03-30T00:17:43.381Z,2.40
2023-03-30T00:18:43.338Z,2.90
2023-03-30T00:19:43.340Z,2.60
2023-03-30T00:20:43.393Z,2.40
2023-03-30T00:21:43.328Z,2.50
2023-03-30T00:22:43.293Z,2.70
2023-03-30T00:23:43.291Z,2.70
2023-03-30T00:24:43.270Z,2.70
2023-03-30T00:25:43.254Z,2.60
2023-03-30T00:26:43.246Z,2.60
2023-03-30T00:27:43.264Z,2.70
2023-03-30T00:28:43.266Z,2.40
2023-03-30T00:29:43.215Z,2.50
2023-03-30T00:30:43.210Z,2.50
2023-03-30T00:31:43.272Z,2.70
2023-03-30T00:32:43.255Z,2.80
2023-03-30T00:33:46.317Z,2.60
2023-03-30T00:34:43.158Z,2.30
2023-03-30T00:35:43.190Z,2.40
2023-03-30T00:36:43.130Z,2.60
2023-03-30T00:37:43.120Z,2.40
2023-03-30T00:38:43.135Z,2.60
2023-03-30T00:39:43.117Z,2.60
2023-03-30T00:40:43.083Z,2.40
2023-03-30T00:41:43.073Z,2.30
2023-03-30T00:42:43.087Z,2.80
2023-03-30T00:43:43.072Z,2.10
2023-03-30T00:44:43.043Z,2.50
2023-03-30T00:45:43.058Z,2.70
2023-03-30T00:46:43.025Z,2.50
2023-03-30T00:47:43.091Z,2.50
2023-03-30T00:48:43.013Z,2.50
2023-03-30T00:49:43.027Z,2.40
2023-03-30T00:50:42.977Z,2.30
2023-03-30T00:51:42.978Z,2.70
2023-03-30T00:52:42.974Z,2.70
2023-03-30T00:53:42.938Z,2.40
2023-03-30T00:54:42.930Z,2.50
2023-03-30T00:55:42.946Z,2.50
2023-03-30T00:56:42.969Z,2.60
2023-03-30T00:57:42.897Z,2.70
2023-03-30T00:58:42.909Z,2.50
2023-03-30T00:59:42.896Z,2.30
2023-03-30T01:00:42.885Z,2.40
2023-03-30T01:01:43.019Z,2.70
2023-03-30T01:02:42.946Z,2.20
2023-03-30T01:03:42.963Z,2.30
2023-03-30T01:04:42.818Z,2.70
2023-03-30T01:05:42.844Z,2.40
2023-03-30T01:06:42.846Z,2.40
2023-03-30T01:07:42.785Z,2.30
2023-03-30T01:08:42.781Z,2.30
2023-03-30T01:09:42.802Z,2.60
2023-03-30T01:10:42.763Z,2.10
2023-03-30T01:11:42.749Z,2.10
2023-03-30T01:12:42.732Z,2.30
2023-03-30T01:13:42.718Z,2.20
2023-03-30T01:14:42.736Z,2.30
2023-03-30T01:15:42.795Z,2.50
2023-03-30T01:16:42.700Z,1.90
2023-03-30T01:17:42.771Z,2.10
2023-03-30T01:18:42.667Z,2.40
2023-03-30T01:19:42.671Z,2.40
2023-03-30T01:20:42.640Z,2.70
2023-03-30T01:21:42.650Z,2.40
2023-03-30T01:22:42.636Z,2.20
2023-03-30T01:23:42.604Z,2.70
2023-03-30T01:24:42.589Z,2.50
2023-03-30T01:25:42.584Z,2.50
2023-03-30T01:26:42.591Z,2.50
2023-03-30T01:27:42.558Z,2.30
2023-03-30T01:28:42.568Z,2.30
2023-03-30T01:29:42.537Z,2.30
2023-03-30T01:30:42.530Z,2.20
2023-03-30T01:31:42.661Z,2.10
2023-03-30T01:32:42.563Z,2.50
2023-03-30T01:33:42.527Z,2.10
2023-03-30T01:34:42.517Z,2.40
2023-03-30T01:35:42.566Z,2.30
2023-03-30T01:36:42.464Z,2.20
2023-03-30T01:37:42.462Z,2.30
2023-03-30T01:38:42.449Z,2.50
2023-03-30T01:39:42.433Z,2.10
2023-03-30T01:40:42.445Z,2.10
2023-03-30T01:41:42.410Z,2.30
2023-03-30T01:42:42.390Z,2.20
2023-03-30T01:43:42.406Z,2.50
2023-03-30T01:44:42.372Z,2.30
2023-03-30T01:45:42.386Z,2.30
2023-03-30T01:46:42.413Z,2.30
2023-03-30T01:47:42.388Z,2.40
2023-03-30T01:48:42.328Z,2.20
2023-03-30T01:49:42.314Z,2.90
2023-03-30T01:50:42.325Z,2.20
2023-03-30T01:51:42.319Z,2.50
2023-03-30T01:52:42.325Z,2.30
2023-03-30T01:53:42.289Z,2.50
2023-03-30T01:54:42.259Z,2.20
2023-03-30T01:55:42.258Z,2.10
2023-03-30T01:56:42.278Z,2.10
2023-03-30T01:57:42.265Z,2.30
2023-03-30T01:58:42.229Z,2.10
2023-03-30T01:59:42.221Z,2.20
2023-03-30T02:00:42.238Z,2.20
2023-03-30T02:01:42.213Z,2.40
2023-03-30T02:02:42.246Z,2.20
2023-03-30T02:03:42.443Z,2.10
2023-03-30T02:04:42.154Z,1.90
2023-03-30T02:05:42.168Z,2.10
2023-03-30T02:06:42.120Z,2.10
2023-03-30T02:07:42.144Z,2.10
2023-03-30T02:08:42.094Z,2.10
2023-03-30T02:09:42.111Z,2.10
2023-03-30T02:10:42.106Z,2.00
2023-03-30T02:11:42.142Z,2.00
2023-03-30T02:12:42.063Z,1.90
2023-03-30T02:13:42.131Z,1.90
2023-03-30T02:14:42.083Z,2.30
2023-03-30T02:15:42.038Z,2.10
2023-03-30T02:16:42.057Z,1.90
2023-03-30T02:17:42.057Z,1.90
2023-03-30T02:18:41.987Z,2.10
2023-03-30T02:19:42.039Z,2.40
2023-03-30T02:20:41.972Z,1.60
2023-03-30T02:21:41.971Z,2.00
2023-03-30T02:22:41.972Z,2.10
2023-03-30T02:23:41.961Z,2.00
2023-03-30T02:24:41.928Z,2.10
2023-03-30T02:25:41.925Z,1.90
2023-03-30T02:26:41.938Z,2.20
2023-03-30T02:27:42.002Z,2.30
2023-03-30T02:28:41.878Z,1.80
2023-03-30T02:29:41.865Z,1.80
2023-03-30T02:30:41.873Z,2.30
2023-03-30T02:31:41.891Z,2.20
2023-03-30T02:32:41.956Z,2.20
2023-03-30T02:33:41.818Z,1.90
2023-03-30T02:34:41.822Z,2.10
2023-03-30T02:35:41.896Z,2.00
2023-03-30T02:36:41.829Z,2.10
2023-03-30T02:37:41.810Z,2.10
2023-03-30T02:38:41.768Z,1.70
2023-03-30T02:39:41.757Z,1.90
2023-03-30T02:40:41.741Z,2.00
2023-03-30T02:41:41.737Z,1.90
2023-03-30T02:42:41.748Z,2.00
2023-03-30T02:43:41.709Z,2.00
2023-03-30T02:44:41.693Z,2.00
2023-03-30T02:45:41.741Z,1.80
2023-03-30T02:46:41.672Z,2.00
2023-03-30T02:47:41.764Z,2.10
2023-03-30T02:48:41.675Z,2.20
2023-03-30T02:49:41.644Z,2.10
2023-03-30T02:50:41.630Z,2.10
2023-03-30T02:51:41.644Z,1.80
2023-03-30T02:52:41.614Z,1.90
2023-03-30T02:53:41.618Z,1.80
2023-03-30T02:54:41.588Z,2.00
2023-03-30T02:55:41.578Z,2.40
2023-03-30T02:56:41.624Z,2.00
2023-03-30T02:57:41.564Z,2.20
2023-03-30T02:58:41.566Z,2.00
2023-03-30T02:59:41.525Z,2.00
2023-03-30T03:00:41.554Z,2.00
2023-03-30T03:01:41.552Z,2.00
2023-03-30T03:02:41.548Z,2.30
2023-03-30T03:03:41.607Z,1.90
2023-03-30T03:04:41.510Z,2.10
2023-03-30T03:05:41.466Z,2.00
2023-03-30T03:06:41.469Z,1.90
2023-03-30T03:07:41.466Z,1.90
2023-03-30T03:08:41.446Z,1.80
2023-03-30T03:09:41.444Z,2.10
2023-03-30T03:10:41.448Z,1.70
2023-03-30T03:11:41.400Z,2.00
2023-03-30T03:12:41.380Z,2.00
2023-03-30T03:13:41.387Z,2.00
2023-03-30T03:14:41.369Z,2.00
2023-03-30T03:15:41.358Z,2.10
2023-03-30T03:16:41.353Z,1.80
2023-03-30T03:17:41.389Z,1.90
2023-03-30T03:18:41.341Z,2.20
2023-03-30T03:19:41.313Z,2.00
2023-03-30T03:20:41.293Z,2.20
2023-03-30T03:21:41.314Z,1.90
2023-03-30T03:22:41.274Z,2.40
2023-03-30T03:23:41.312Z,2.40
2023-03-30T03:24:41.257Z,2.00
2023-03-30T03:25:41.243Z,2.10
2023-03-30T03:26:41.226Z,1.60
2023-03-30T03:27:41.237Z,2.00
2023-03-30T03:28:41.216Z,2.30
2023-03-30T03:29:41.222Z,2.20
2023-03-30T03:30:41.226Z,2.00
2023-03-30T03:31:41.226Z,2.10
2023-03-30T03:32:41.215Z,2.00
2023-03-30T03:33:41.148Z,2.20
2023-03-30T03:34:41.136Z,2.40
2023-03-30T03:35:41.163Z,1.90
2023-03-30T03:36:41.117Z,2.40
2023-03-30T03:37:41.119Z,1.90
2023-03-30T03:38:41.108Z,2.00
2023-03-30T03:39:41.107Z,2.10
2023-03-30T03:40:41.071Z,2.20
2023-03-30T03:41:41.081Z,1.90
2023-03-30T03:42:41.046Z,2.00
2023-03-30T03:43:41.043Z,1.80
2023-03-30T03:44:41.046Z,2.20
2023-03-30T03:45:41.012Z,2.20
2023-03-30T03:46:41.018Z,1.90
2023-03-30T03:47:41.037Z,2.20
2023-03-30T03:48:40.981Z,2.30
2023-03-30T03:49:40.991Z,2.00
2023-03-30T03:50:40.983Z,2.10
2023-03-30T03:51:40.953Z,2.10
2023-03-30T03:52:40.934Z,2.20
2023-03-30T03:53:40.922Z,2.20
2023-03-30T03:54:40.916Z,2.00
2023-03-30T03:55:40.952Z,2.10
2023-03-30T03:56:40.924Z,2.30
2023-03-30T03:57:40.886Z,1.70
2023-03-30T03:58:40.876Z,2.10
2023-03-30T03:59:40.861Z,2.00
2023-03-30T04:00:40.870Z,1.80
2023-03-30T04:01:40.884Z,1.90
2023-03-30T04:02:40.876Z,1.80
2023-03-30T04:03:40.833Z,2.00
2023-03-30T04:04:40.810Z,1.90
2023-03-30T04:05:40.827Z,2.10
2023-03-30T04:06:40.791Z,2.20
2023-03-30T04:07:40.771Z,2.30
2023-03-30T04:08:40.758Z,2.20
2023-03-30T04:09:40.778Z,1.80
2023-03-30T04:10:40.781Z,2.20
2023-03-30T04:11:40.741Z,1.90
2023-03-30T04:12:40.713Z,2.20
2023-03-30T04:13:40.703Z,2.00
2023-03-30T04:14:40.712Z,2.00
2023-03-30T04:15:40.686Z,2.20
2023-03-30T04:16:40.821Z,1.90
2023-03-30T04:17:40.682Z,2.30
2023-03-30T04:18:40.675Z,2.20
2023-03-30T04:19:40.629Z,2.00
2023-03-30T04:20:40.641Z,2.20
2023-03-30T04:21:40.632Z,1.80
2023-03-30T04:22:40.604Z,2.00
2023-03-30T04:23:40.611Z,2.10
2023-03-30T04:24:40.579Z,2.10
2023-03-30T04:25:40.604Z,1.80
2023-03-30T04:26:40.592Z,1.80
2023-03-30T04:27:40.574Z,2.00
2023-03-30T04:28:40.578Z,2.10
2023-03-30T04:29:40.544Z,1.80
2023-03-30T04:30:40.516Z,2.00
2023-03-30T04:31:40.546Z,1.60
2023-03-30T04:32:40.579Z,1.90
2023-03-30T04:33:40.527Z,2.20
2023-03-30T04:34:40.490Z,2.00
2023-03-30T04:35:40.489Z,1.70
2023-03-30T04:36:40.442Z,1.90
2023-03-30T04:37:40.433Z,1.90
2023-03-30T04:38:40.431Z,1.80
2023-03-30T04:39:40.413Z,2.10
2023-03-30T04:40:40.418Z,1.90
2023-03-30T04:41:40.420Z,1.90
2023-03-30T04:42:40.382Z,1.70
2023-03-30T04:43:40.392Z,1.90
2023-03-30T04:44:40.380Z,1.80
2023-03-30T04:45:40.410Z,2.10
2023-03-30T04:46:40.358Z,1.90
2023-03-30T04:47:40.347Z,2.00
2023-03-30T04:48:40.311Z,1.70
2023-03-30T04:49:40.317Z,1.70
2023-03-30T04:50:40.312Z,1.90
2023-03-30T04:51:40.296Z,2.00
2023-03-30T04:52:40.285Z,2.50
2023-03-30T04:53:40.309Z,2.00
2023-03-30T04:54:40.251Z,1.90
2023-03-30T04:55:40.256Z,2.00
2023-03-30T04:56:40.476Z,1.80
2023-03-30T04:57:40.211Z,2.00
2023-03-30T04:58:40.225Z,2.00
2023-03-30T04:59:40.211Z,2.00
2023-03-30T05:00:40.178Z,2.00
2023-03-30T05:01:40.233Z,1.80
2023-03-30T05:02:40.329Z,2.20
2023-03-30T05:03:40.234Z,2.20
2023-03-30T05:04:40.132Z,2.00
2023-03-30T05:05:40.125Z,2.10
2023-03-30T05:06:40.123Z,2.10
2023-03-30T05:07:40.127Z,2.20
2023-03-30T05:08:41.750Z,2.30
2023-03-30T05:09:40.088Z,2.60
2023-03-30T05:10:40.084Z,2.20
2023-03-30T05:11:40.073Z,2.20
2023-03-30T05:12:40.064Z,2.10
2023-03-30T05:13:40.041Z,2.20
2023-03-30T05:14:40.051Z,2.10
2023-03-30T05:15:40.039Z,2.30
2023-03-30T05:16:40.317Z,2.10
2023-03-30T05:17:40.087Z,2.00
2023-03-30T05:18:40.023Z,2.30
2023-03-30T05:19:39.967Z,2.70
2023-03-30T05:20:40.045Z,2.30
2023-03-30T05:21:39.989Z,2.60
2023-03-30T05:22:39.946Z,2.60
2023-03-30T05:23:39.922Z,2.50
2023-03-30T05:24:39.917Z,2.20
2023-03-30T05:25:39.924Z,2.40
2023-03-30T05:26:39.949Z,2.60
2023-03-30T05:27:39.901Z,2.30
2023-03-30T05:28:39.875Z,2.50
2023-03-30T05:29:39.864Z,2.60
2023-03-30T05:30:39.858Z,2.30
2023-03-30T05:31:40.048Z,2.80
2023-03-30T05:32:39.875Z,2.50
2023-03-30T05:33:41.430Z,2.60
2023-03-30T05:34:39.845Z,2.20
2023-03-30T05:35:39.838Z,2.50
2023-03-30T05:36:39.786Z,2.80
2023-03-30T05:37:39.772Z,2.60
2023-03-30T05:38:39.776Z,2.40
2023-03-30T05:39:39.747Z,2.40
2023-03-30T05:40:39.744Z,2.50
2023-03-30T05:41:39.757Z,2.80
2023-03-30T05:42:39.725Z,2.80
2023-03-30T05:43:39.708Z,2.70
2023-03-30T05:44:39.703Z,2.50
2023-03-30T05:45:39.694Z,2.80
2023-03-30T05:46:39.726Z,2.40
2023-03-30T05:47:39.744Z,2.90
2023-03-30T05:48:39.691Z,2.90
2023-03-30T05:49:39.665Z,2.30
2023-03-30T05:50:39.621Z,3.00
2023-03-30T05:51:39.929Z,2.60
2023-03-30T05:52:39.720Z,2.50
2023-03-30T05:53:39.598Z,2.80
2023-03-30T05:54:39.577Z,3.00
2023-03-30T05:55:39.590Z,2.70
2023-03-30T05:56:39.622Z,2.50
2023-03-30T05:57:39.548Z,2.70
2023-03-30T05:58:39.525Z,2.60
2023-03-30T05:59:39.543Z,2.70
2023-03-30T06:00:39.521Z,2.30
2023-03-30T06:01:39.492Z,2.70
2023-03-30T06:02:39.533Z,2.90
2023-03-30T06:03:39.604Z,2.70
2023-03-30T06:04:39.478Z,2.60
2023-03-30T06:05:39.475Z,2.90
2023-03-30T06:06:39.439Z,2.90
2023-03-30T06:07:39.425Z,2.90
2023-03-30T06:08:39.425Z,2.80
2023-03-30T06:09:39.436Z,2.80
2023-03-30T06:10:39.423Z,2.40
2023-03-30T06:11:39.409Z,2.50
2023-03-30T06:12:39.396Z,3.00
2023-03-30T06:13:39.385Z,2.70
2023-03-30T06:14:39.353Z,2.80
2023-03-30T06:15:39.346Z,2.80
2023-03-30T06:16:39.384Z,2.50
2023-03-30T06:17:39.444Z,2.80
2023-03-30T06:18:39.338Z,2.60
2023-03-30T06:19:39.320Z,2.50
2023-03-30T06:20:39.305Z,3.10
2023-03-30T06:21:39.273Z,2.80
2023-03-30T06:22:39.283Z,2.50
2023-03-30T06:23:39.247Z,2.70
2023-03-30T06:24:39.238Z,2.60
2023-03-30T06:25:39.239Z,2.50
2023-03-30T06:26:39.246Z,2.80
2023-03-30T06:27:39.207Z,2.60
2023-03-30T06:28:39.214Z,2.80
2023-03-30T06:29:39.207Z,2.80
2023-03-30T06:30:39.225Z,2.70
2023-03-30T06:31:39.197Z,2.90
2023-03-30T06:32:39.182Z,2.40
2023-03-30T06:33:41.695Z,3.30
2023-03-30T06:34:39.139Z,2.70
2023-03-30T06:35:39.169Z,2.60
2023-03-30T06:36:44.622Z,2.70
2023-03-30T06:37:40.094Z,2.40
2023-03-30T06:38:39.410Z,2.30
2023-03-30T06:39:39.070Z,2.60
2023-03-30T06:40:39.094Z,2.30
2023-03-30T06:41:39.072Z,2.50
2023-03-30T06:42:39.041Z,2.80
2023-03-30T06:43:39.044Z,2.60
2023-03-30T06:44:39.059Z,2.60
2023-03-30T06:45:39.052Z,2.50
2023-03-30T06:46:39.069Z,2.50
2023-03-30T06:47:39.098Z,2.60
2023-03-30T06:48:38.992Z,2.10
2023-03-30T06:49:38.962Z,2.40
2023-03-30T06:50:38.977Z,2.40
2023-03-30T06:51:39.043Z,2.50
2023-03-30T06:52:38.956Z,2.50
2023-03-30T06:53:38.917Z,2.00
2023-03-30T06:54:38.972Z,2.50
2023-03-30T06:55:38.915Z,2.60
2023-03-30T06:56:38.897Z,2.30
2023-03-30T06:57:38.904Z,2.50
2023-03-30T06:58:38.860Z,2.40
2023-03-30T06:59:38.865Z,2.40
2023-03-30T07:00:38.857Z,2.20
2023-03-30T07:01:38.872Z,2.60
2023-03-30T07:02:38.883Z,2.30
2023-03-30T07:03:38.806Z,2.40
2023-03-30T07:04:38.848Z,2.10
2023-03-30T07:05:38.818Z,2.50
2023-03-30T07:06:38.781Z,2.40
2023-03-30T07:07:38.787Z,2.40
2023-03-30T07:08:38.776Z,2.50
2023-03-30T07:09:38.766Z,2.00
2023-03-30T07:10:38.727Z,2.50
2023-03-30T07:11:38.722Z,2.70
2023-03-30T07:12:38.729Z,2.60
2023-03-30T07:13:38.718Z,2.30
2023-03-30T07:14:38.710Z,2.50
2023-03-30T07:15:38.687Z,2.50
2023-03-30T07:16:38.722Z,2.30
2023-03-30T07:17:38.684Z,2.30
2023-03-30T07:18:38.765Z,2.60
2023-03-30T07:19:38.675Z,2.50
2023-03-30T07:20:38.615Z,2.50
2023-03-30T07:21:38.611Z,2.50
2023-03-30T07:22:38.595Z,2.60
2023-03-30T07:23:38.629Z,2.40
2023-03-30T07:24:38.577Z,2.40
2023-03-30T07:25:38.568Z,2.40
2023-03-30T07:26:38.556Z,2.50
2023-03-30T07:27:38.567Z,2.70
2023-03-30T07:28:38.570Z,2.80
2023-03-30T07:29:38.523Z,2.40
2023-03-30T07:30:38.543Z,2.30
2023-03-30T07:31:38.585Z,2.20
2023-03-30T07:32:38.578Z,2.90
2023-03-30T07:33:38.526Z,2.50
2023-03-30T07:34:38.481Z,2.60
2023-03-30T07:35:38.473Z,2.50
2023-03-30T07:36:38.444Z,2.60
2023-03-30T07:37:38.431Z,2.60
2023-03-30T07:38:38.432Z,2.50
2023-03-30T07:39:38.458Z,2.60
2023-03-30T07:40:38.452Z,2.30
2023-03-30T07:41:38.386Z,2.70
2023-03-30T07:42:38.430Z,2.70
2023-03-30T07:43:38.387Z,2.30
2023-03-30T07:44:38.348Z,2.50
2023-03-30T07:45:38.367Z,2.60
2023-03-30T07:46:38.427Z,2.40
2023-03-30T07:47:38.376Z,2.50
2023-03-30T07:48:38.338Z,3.20
2023-03-30T07:49:38.332Z,2.40
2023-03-30T07:50:38.289Z,2.60
2023-03-30T07:51:38.299Z,2.70
2023-03-30T07:52:38.281Z,2.40
2023-03-30T07:53:38.288Z,2.80
2023-03-30T07:54:38.247Z,2.40
2023-03-30T07:55:38.261Z,2.70
2023-03-30T07:56:38.313Z,2.40
2023-03-30T07:57:38.205Z,2.70
2023-03-30T07:58:38.208Z,2.50
2023-03-30T07:59:38.202Z,2.60
2023-03-30T08:00:38.167Z,2.20
2023-03-30T08:01:38.156Z,2.40
2023-03-30T08:02:38.172Z,2.40
2023-03-30T08:03:38.256Z,2.60
2023-03-30T08:04:38.300Z,2.90
2023-03-30T08:05:38.203Z,2.30
2023-03-30T08:06:38.105Z,2.50
2023-03-30T08:07:38.091Z,2.40
2023-03-30T08:08:38.088Z,2.60
2023-03-30T08:09:38.083Z,2.50
2023-03-30T08:10:38.059Z,2.50
2023-03-30T08:11:38.083Z,2.50
2023-03-30T08:12:38.074Z,2.10
2023-03-30T08:13:38.043Z,2.40
2023-03-30T08:14:38.013Z,2.20
2023-03-30T08:15:38.023Z,2.70
2023-03-30T08:16:38.077Z,2.80
2023-03-30T08:17:38.045Z,2.50
2023-03-30T08:18:38.000Z,2.10
2023-03-30T08:19:37.963Z,2.60
2023-03-30T08:20:37.951Z,2.30
2023-03-30T08:21:37.956Z,2.40
2023-03-30T08:22:37.922Z,2.50
2023-03-30T08:23:38.031Z,2.40
2023-03-30T08:24:37.913Z,2.40
2023-03-30T08:25:37.937Z,2.50
2023-03-30T08:26:37.892Z,2.30
2023-03-30T08:27:37.947Z,2.40
2023-03-30T08:28:37.890Z,2.60
2023-03-30T08:29:37.871Z,2.90
2023-03-30T08:30:37.841Z,2.70
2023-03-30T08:31:37.934Z,2.80
2023-03-30T08:32:37.883Z,3.10
2023-03-30T08:33:37.833Z,2.80
2023-03-30T08:34:37.791Z,2.50
2023-03-30T08:35:37.941Z,2.50
2023-03-30T08:36:37.817Z,2.70
2023-03-30T08:37:37.784Z,2.60
2023-03-30T08:38:37.799Z,2.90
2023-03-30T08:39:37.853Z,2.40
2023-03-30T08:40:37.725Z,2.90
2023-03-30T08:41:37.771Z,3.00
2023-03-30T08:42:37.750Z,2.20
2023-03-30T08:43:37.783Z,2.80
2023-03-30T08:44:37.694Z,2.70
2023-03-30T08:45:39.594Z,2.60
2023-03-30T08:46:37.655Z,2.50
2023-03-30T08:47:37.748Z,2.50
2023-03-30T08:48:37.981Z,2.90
2023-03-30T08:49:37.647Z,2.60
2023-03-30T08:50:37.612Z,2.70
2023-03-30T08:51:37.600Z,2.30
2023-03-30T08:52:37.604Z,3.10
2023-03-30T08:53:37.592Z,2.70
2023-03-30T08:54:37.578Z,2.60
2023-03-30T08:55:37.564Z,3.20
2023-03-30T08:56:37.620Z,2.90
2023-03-30T08:57:37.552Z,2.80
2023-03-30T08:58:37.542Z,2.60
2023-03-30T08:59:37.542Z,2.80
2023-03-30T09:00:37.538Z,2.70
2023-03-30T09:01:37.518Z,2.90
2023-03-30T09:02:38.180Z,3.20
2023-03-30T09:03:37.491Z,2.30
2023-03-30T09:04:37.520Z,2.70
2023-03-30T09:05:37.519Z,2.60
2023-03-30T09:06:37.437Z,2.60
2023-03-30T09:07:37.429Z,3.00
2023-03-30T09:08:37.438Z,3.00
2023-03-30T09:09:37.453Z,2.70
2023-03-30T09:10:37.402Z,2.90
2023-03-30T09:11:37.389Z,2.80
2023-03-30T09:12:37.411Z,2.50
2023-03-30T09:13:37.364Z,3.20
2023-03-30T09:14:37.352Z,3.40
2023-03-30T09:15:37.357Z,2.90
2023-03-30T09:16:37.375Z,2.80
2023-03-30T09:17:37.357Z,2.70
2023-03-30T09:18:37.311Z,2.80
2023-03-30T09:19:37.293Z,2.70
2023-03-30T09:20:37.289Z,2.70
2023-03-30T09:21:37.265Z,3.00
2023-03-30T09:22:37.273Z,2.70
2023-03-30T09:23:37.266Z,2.90
2023-03-30T09:24:37.231Z,3.00
2023-03-30T09:25:37.262Z,2.90
2023-03-30T09:26:37.210Z,2.70
2023-03-30T09:27:37.205Z,3.00
2023-03-30T09:28:37.183Z,2.80
2023-03-30T09:29:37.179Z,2.40
2023-03-30T09:30:37.196Z,2.90
2023-03-30T09:31:37.224Z,2.60
2023-03-30T09:32:37.165Z,2.70
2023-03-30T09:33:37.149Z,2.60
2023-03-30T09:34:37.166Z,2.30
2023-03-30T09:35:37.135Z,3.00
2023-03-30T09:36:37.098Z,2.70
2023-03-30T09:37:37.120Z,2.60
2023-03-30T09:38:37.076Z,2.80
2023-03-30T09:39:37.088Z,2.80
2023-03-30T09:40:37.059Z,2.40
2023-03-30T09:41:37.052Z,2.80
2023-03-30T09:42:37.038Z,2.60
2023-03-30T09:43:37.022Z,2.90
2023-03-30T09:44:37.034Z,2.70
2023-03-30T09:45:37.036Z,2.60
2023-03-30T09:46:37.173Z,2.60
2023-03-30T09:47:37.030Z,2.90
2023-03-30T09:48:36.984Z,2.60
2023-03-30T09:49:36.962Z,2.70
2023-03-30T09:50:36.957Z,2.80
2023-03-30T09:51:36.932Z,2.80
2023-03-30T09:52:36.940Z,3.00
2023-03-30T09:53:36.913Z,2.40
2023-03-30T09:54:36.910Z,2.90
2023-03-30T09:55:36.970Z,2.60
2023-03-30T09:56:36.882Z,3.00
2023-03-30T09:57:36.903Z,2.60
2023-03-30T09:58:36.880Z,2.80
2023-03-30T09:59:36.858Z,3.10
2023-03-30T10:00:36.851Z,2.50
2023-03-30T10:01:36.848Z,2.40
2023-03-30T10:02:36.881Z,2.70
2023-03-30T10:03:36.953Z,2.40
2023-03-30T10:04:36.875Z,2.70
2023-03-30T10:05:36.816Z,2.50
2023-03-30T10:06:36.826Z,2.20
2023-03-30T10:07:36.768Z,2.60
2023-03-30T10:08:36.756Z,2.80
2023-03-30T10:09:36.761Z,2.30
2023-03-30T10:10:36.725Z,3.00
2023-03-30T10:11:36.711Z,2.80
2023-03-30T10:12:36.696Z,2.20
2023-03-30T10:13:36.696Z,2.80
2023-03-30T10:14:36.800Z,2.70
2023-03-30T10:15:36.716Z,2.40
2023-03-30T10:16:36.894Z,2.60
2023-03-30T10:17:36.752Z,2.80
2023-03-30T10:18:36.650Z,2.50
2023-03-30T10:19:38.943Z,2.80
2023-03-30T10:20:36.636Z,2.30
2023-03-30T10:21:36.600Z,2.30
2023-03-30T10:22:36.588Z,2.40
2023-03-30T10:23:36.578Z,2.30
2023-03-30T10:24:36.573Z,2.30
2023-03-30T10:25:36.588Z,2.50
2023-03-30T10:26:36.558Z,2.70
2023-03-30T10:27:36.540Z,3.00
2023-03-30T10:28:36.526Z,2.10
2023-03-30T10:29:36.543Z,2.80
2023-03-30T10:30:36.504Z,2.50
2023-03-30T10:31:36.628Z,2.40
2023-03-30T10:32:36.561Z,2.80
2023-03-30T10:33:36.516Z,2.50
2023-03-30T10:34:36.473Z,2.20
2023-03-30T10:35:36.596Z,2.30
2023-03-30T10:36:36.435Z,2.50
2023-03-30T10:37:36.436Z,2.40
2023-03-30T10:38:36.445Z,2.80
2023-03-30T10:39:36.402Z,3.00
2023-03-30T10:40:36.405Z,2.80
2023-03-30T10:41:36.387Z,2.90
2023-03-30T10:42:36.398Z,2.40
2023-03-30T10:43:36.392Z,2.70
2023-03-30T10:44:36.396Z,3.00
2023-03-30T10:45:36.351Z,2.50
2023-03-30T10:46:36.357Z,2.40
2023-03-30T10:47:36.404Z,2.00
2023-03-30T10:48:36.303Z,2.10
2023-03-30T10:49:36.316Z,2.20
2023-03-30T10:50:36.284Z,2.10
2023-03-30T10:51:36.284Z,2.70
2023-03-30T10:52:43.050Z,2.20
2023-03-30T10:53:37.269Z,2.30
2023-03-30T10:54:36.341Z,2.80
2023-03-30T10:55:36.232Z,2.50
2023-03-30T10:56:36.224Z,2.60
2023-03-30T10:57:36.198Z,2.30
2023-03-30T10:58:36.208Z,2.30
2023-03-30T10:59:36.203Z,2.20
2023-03-30T11:00:36.166Z,2.70
2023-03-30T11:01:36.313Z,2.50
2023-03-30T11:02:37.160Z,2.60
2023-03-30T11:03:36.225Z,2.10
2023-03-30T11:04:36.120Z,2.20
2023-03-30T11:05:36.158Z,2.20
2023-03-30T11:06:36.095Z,2.00
2023-03-30T11:07:36.129Z,2.20
2023-03-30T11:08:36.101Z,1.90
2023-03-30T11:09:36.074Z,2.60
2023-03-30T11:10:36.122Z,2.30
2023-03-30T11:11:36.049Z,2.40
2023-03-30T11:12:36.033Z,2.30
2023-03-30T11:13:36.017Z,2.10
2023-03-30T11:14:36.009Z,2.30
2023-03-30T11:15:36.013Z,1.80
2023-03-30T11:16:36.019Z,2.40
2023-03-30T11:17:36.029Z,2.00
2023-03-30T11:18:35.983Z,2.30
2023-03-30T11:19:35.966Z,2.30
2023-03-30T11:20:35.997Z,2.20
2023-03-30T11:21:35.938Z,1.60
2023-03-30T11:22:35.954Z,1.50
2023-03-30T11:23:35.962Z,1.20
2023-03-30T11:24:35.931Z,0.90
2023-03-30T11:25:35.897Z,1.30
2023-03-30T11:26:35.893Z,1.00
2023-03-30T11:27:35.864Z,1.20
2023-03-30T11:28:35.922Z,1.20
2023-03-30T11:29:35.839Z,1.20
2023-03-30T11:30:35.832Z,1.40
2023-03-30T11:31:35.875Z,1.10
2023-03-30T11:32:35.849Z,1.20
2023-03-30T11:33:35.812Z,1.20
2023-03-30T11:34:35.798Z,1.40
2023-03-30T11:35:35.790Z,1.10
2023-03-30T11:36:35.757Z,1.00
2023-03-30T11:37:35.755Z,1.30
2023-03-30T11:38:35.765Z,1.00
2023-03-30T11:39:35.749Z,1.40
2023-03-30T11:40:35.737Z,0.90
2023-03-30T11:41:35.745Z,1.00
2023-03-30T11:42:35.698Z,1.30
2023-03-30T11:43:35.694Z,1.30
2023-03-30T11:44:35.671Z,1.10
2023-03-30T11:45:35.667Z,1.00
2023-03-30T11:46:35.702Z,1.30
2023-03-30T11:47:35.667Z,1.20
2023-03-30T11:48:35.630Z,1.10
2023-03-30T11:49:35.629Z,1.40
2023-03-30T11:50:36.232Z,1.50
2023-03-30T11:51:35.631Z,1.30
2023-03-30T11:52:35.584Z,1.50
2023-03-30T11:53:35.581Z,1.60
2023-03-30T11:54:35.598Z,1.20
2023-03-30T11:55:35.617Z,1.20
2023-03-30T11:56:35.547Z,1.30
2023-03-30T11:57:35.548Z,1.10
2023-03-30T11:58:35.575Z,1.20
2023-03-30T11:59:35.659Z,1.20
2023-03-30T12:00:35.511Z,1.30
2023-03-30T12:01:35.488Z,1.20
2023-03-30T12:02:35.542Z,1.20
2023-03-30T12:03:35.684Z,1.50
2023-03-30T12:04:37.481Z,1.20
2023-03-30T12:05:35.441Z,1.30
2023-03-30T12:06:35.458Z,1.50
2023-03-30T12:07:35.431Z,1.60
2023-03-30T12:08:35.428Z,1.70
2023-03-30T12:09:35.417Z,1.20
2023-03-30T12:10:35.438Z,1.10
2023-03-30T12:11:35.404Z,1.40
2023-03-30T12:12:35.391Z,1.30
2023-03-30T12:13:48.430Z,1.50
2023-03-30T12:14:36.350Z,1.60
2023-03-30T12:15:35.495Z,1.20
2023-03-30T12:16:35.395Z,1.20
2023-03-30T12:17:35.402Z,1.50
2023-03-30T12:18:35.323Z,1.30
2023-03-30T12:19:42.535Z,1.60
2023-03-30T12:20:36.274Z,1.60
2023-03-30T12:21:35.333Z,1.60
2023-03-30T12:22:35.261Z,1.80
2023-03-30T12:23:35.256Z,1.40
2023-03-30T12:24:35.231Z,1.50
2023-03-30T12:25:35.234Z,1.60
2023-03-30T12:26:35.207Z,1.20
2023-03-30T12:27:35.281Z,1.70
2023-03-30T12:28:50.011Z,1.50
2023-03-30T12:29:58.430Z,1.50
2023-03-30T12:30:36.188Z,1.70
2023-03-30T12:31:35.219Z,1.70
2023-03-30T12:32:35.336Z,1.70
2023-03-30T12:33:35.231Z,1.50
2023-03-30T12:34:35.339Z,1.70
2023-03-30T12:35:35.117Z,1.80
2023-03-30T12:36:35.114Z,1.70
2023-03-30T12:37:35.343Z,1.60
2023-03-30T12:38:35.158Z,1.60
2023-03-30T12:39:35.100Z,1.70
2023-03-30T12:40:35.196Z,1.80
2023-03-30T12:41:35.043Z,2.00
2023-03-30T12:42:35.253Z,1.70
2023-03-30T12:43:35.041Z,1.60
2023-03-30T12:44:35.035Z,1.70
2023-03-30T12:45:35.027Z,2.30
2023-03-30T12:46:35.057Z,1.50
2023-03-30T12:47:35.011Z,1.90
2023-03-30T12:48:34.989Z,1.90
2023-03-30T12:49:34.953Z,1.70
2023-03-30T12:50:34.992Z,1.80
2023-03-30T12:51:35.006Z,1.50
2023-03-30T12:52:34.922Z,1.60
2023-03-30T12:53:34.936Z,1.50
2023-03-30T12:54:34.921Z,1.40
2023-03-30T12:55:34.882Z,1.70
2023-03-30T12:56:34.923Z,1.40
2023-03-30T12:57:34.973Z,2.00
2023-03-30T12:58:37.110Z,1.40
2023-03-30T12:59:34.927Z,1.50
2023-03-30T13:00:34.832Z,1.20
2023-03-30T13:01:34.889Z,1.30
2023-03-30T13:02:34.856Z,1.40
2023-03-30T13:03:34.817Z,1.20
2023-03-30T13:04:34.821Z,1.30
2023-03-30T13:05:34.780Z,1.10
2023-03-30T13:06:34.788Z,0.80
2023-03-30T13:07:34.756Z,1.00
2023-03-30T13:08:34.821Z,0.80
2023-03-30T13:09:34.736Z,0.90
2023-03-30T13:10:34.760Z,0.90
2023-03-30T13:11:34.719Z,0.70
2023-03-30T13:12:34.704Z,0.80
2023-03-30T13:13:34.719Z,1.00
2023-03-30T13:14:34.679Z,0.70
2023-03-30T13:15:34.983Z,1.20
2023-03-30T13:16:34.702Z,0.90
2023-03-30T13:17:34.729Z,0.80
2023-03-30T13:18:34.655Z,0.80